Time;durP1;ratioP1;P1;durP2;ratioP2;P2;SDS_P1;SDS_P2;PMS_P1;PMS_P2;Temp;Humidity;BMP_temperature;BMP_pressure;BME280_temperature;BME280_humidity;BME280_pressure;Samples;Min_cycle;Max_cycle;Signal;HPM_P1;HPM_P2
2023/02/07 00:00:44;;;;;;;16.40;12.00;;;;;;;1.17;100.00;103317.84;2073309;28;20535;-62
2023/02/07 00:01:44;;;;;;;17.27;12.57;;;;;;;1.08;100.00;103333.34;2072992;28;20204;-62
2023/02/07 00:02:47;;;;;;;17.77;12.93;;;;;;;0.89;100.00;103327.16;2073752;28;20255;-62
2023/02/07 00:03:48;;;;;;;15.02;12.50;;;;;;;0.76;100.00;103312.38;2073054;28;20695;-62
2023/02/07 00:04:48;;;;;;;16.30;11.85;;;;;;;0.94;100.00;103337.97;2073804;28;20235;-62
2023/02/07 00:05:49;;;;;;;16.20;12.20;;;;;;;0.70;100.00;103346.34;2073211;28;20189;-62
2023/02/07 00:06:49;;;;;;;15.60;12.27;;;;;;;-0.20;100.00;103208.00;2073304;28;20205;-62
2023/02/07 00:07:50;;;;;;;17.30;12.77;;;;;;;0.26;100.00;103286.00;2067701;28;20270;-62
2023/02/07 00:08:51;;;;;;;16.63;12.83;;;;;;;0.65;100.00;103342.88;2063999;28;20205;-62
2023/02/07 00:09:52;;;;;;;16.33;12.27;;;;;;;0.66;100.00;103336.31;2068045;28;20197;-62
2023/02/07 00:10:52;;;;;;;18.73;12.20;;;;;;;0.77;100.00;103341.28;2072440;28;20252;-62
2023/02/07 00:11:53;;;;;;;16.50;12.07;;;;;;;0.89;100.00;103343.53;2071909;28;20185;-62
2023/02/07 00:12:53;;;;;;;15.27;11.93;;;;;;;1.00;100.00;103344.97;2065838;28;20205;-62
2023/02/07 00:13:56;;;;;;;15.50;12.17;;;;;;;1.07;100.00;103338.00;2073367;28;20243;-62
2023/02/07 00:14:57;;;;;;;15.82;12.02;;;;;;;0.75;100.00;103278.00;2073079;28;20674;-62
2023/02/07 00:15:58;;;;;;;14.95;11.27;;;;;;;1.16;100.00;103335.34;2073414;28;20190;-62
2023/02/07 00:16:58;;;;;;;15.63;11.70;;;;;;;1.09;100.00;103330.28;2068440;28;20256;-62
2023/02/07 00:17:59;;;;;;;15.27;12.60;;;;;;;1.22;100.00;103340.41;2069124;28;20220;-62
2023/02/07 00:18:59;;;;;;;15.27;11.73;;;;;;;1.25;100.00;103345.28;2073029;28;20673;-62
2023/02/07 00:20:00;;;;;;;15.27;11.77;;;;;;;1.24;100.00;103340.91;2073482;28;20212;-62
2023/02/07 00:21:01;;;;;;;15.43;11.63;;;;;;;1.27;100.00;103343.03;2072938;28;20185;-62
2023/02/07 00:22:02;;;;;;;16.55;11.80;;;;;;;0.59;100.00;103243.13;2073186;28;20177;-62
2023/02/07 00:23:02;;;;;;;16.90;12.03;;;;;;;1.24;100.00;103345.59;2065284;28;20231;-62
2023/02/07 00:24:03;;;;;;;15.83;12.20;;;;;;;1.17;100.00;103326.88;2071890;28;20650;-62
2023/02/07 00:25:05;;;;;;;15.83;11.70;;;;;;;1.24;100.00;103334.66;2067780;28;20197;-62
2023/02/07 00:26:06;;;;;;;14.50;11.57;;;;;;;1.23;100.00;103342.03;2069484;28;20203;-62
2023/02/07 00:27:07;;;;;;;16.35;12.07;;;;;;;1.26;100.00;103346.91;2072925;28;20201;-62
2023/02/07 00:28:07;;;;;;;17.23;12.67;;;;;;;1.27;100.00;103342.22;2072713;28;20395;-62
2023/02/07 00:29:09;;;;;;;16.00;12.07;;;;;;;1.29;100.00;103350.94;2071829;28;20615;-62
2023/02/07 00:30:10;;;;;;;18.52;13.27;;;;;;;1.30;100.00;103338.91;2065659;28;20666;-62
2023/02/07 00:31:14;;;;;;;16.20;12.17;;;;;;;1.29;100.00;103346.28;2073525;28;20563;-62
2023/02/07 00:32:15;;;;;;;16.35;12.52;;;;;;;1.07;100.00;103335.25;2068227;28;20446;-62
2023/02/07 00:33:15;;;;;;;17.57;12.80;;;;;;;1.09;100.00;103345.88;2073173;28;20209;-62
2023/02/07 00:34:16;;;;;;;17.87;13.67;;;;;;;1.05;100.00;103348.41;2067484;28;20212;-62
2023/02/07 00:35:17;;;;;;;17.30;13.03;;;;;;;1.03;100.00;103347.09;2069440;28;20248;-62
2023/02/07 00:36:21;;;;;;;17.20;13.02;;;;;;;0.96;100.00;103346.66;2070019;28;20186;-62
2023/02/07 00:37:22;;;;;;;18.13;12.90;;;;;;;0.81;100.00;103342.31;2067868;28;20247;-62
2023/02/07 00:38:22;;;;;;;17.00;12.77;;;;;;;0.67;100.00;103324.31;2071129;28;20177;-62
2023/02/07 00:39:23;;;;;;;18.13;12.90;;;;;;;0.44;100.00;103319.78;2065317;28;20576;-62
2023/02/07 00:40:23;;;;;;;19.13;14.20;;;;;;;0.60;100.00;103348.44;2073545;28;20177;-62
2023/02/07 00:41:24;;;;;;;16.80;12.93;;;;;;;0.58;100.00;103345.19;2072540;28;20201;-62
2023/02/07 00:42:25;;;;;;;20.90;13.95;;;;;;;0.01;100.00;103263.81;2073083;28;20200;-62
2023/02/07 00:43:26;;;;;;;17.10;13.37;;;;;;;-0.04;100.00;103267.41;2067665;28;20401;-62
2023/02/07 00:44:26;;;;;;;17.30;13.20;;;;;;;0.43;100.00;103348.19;2072966;28;20201;-62
2023/02/07 00:45:27;;;;;;;20.10;14.03;;;;;;;0.43;100.00;103348.97;2072779;28;20980;-62
2023/02/07 00:46:27;;;;;;;17.87;14.00;;;;;;;-0.30;100.00;103243.59;2073193;28;20188;-62
2023/02/07 00:47:28;;;;;;;18.93;14.00;;;;;;;0.34;100.00;103345.34;2072711;28;20272;-62
2023/02/07 00:48:30;;;;;;;19.07;14.20;;;;;;;0.03;100.00;103297.84;2073028;28;20208;-62
2023/02/07 00:49:30;;;;;;;18.50;14.25;;;;;;;0.50;100.00;103360.34;2073450;28;20177;-62
2023/02/07 00:50:30;;;;;;;18.10;13.33;;;;;;;0.25;100.00;103298.03;2073080;28;20197;-62
2023/02/07 00:51:32;;;;;;;17.93;14.30;;;;;;;0.61;100.00;103352.78;2072501;28;20216;-62
2023/02/07 00:52:32;;;;;;;18.38;13.55;;;;;;;0.57;100.00;103338.91;2072948;28;20196;-62
2023/02/07 00:53:33;;;;;;;19.00;14.13;;;;;;;0.63;100.00;103331.47;2072998;28;20258;-62
2023/02/07 00:54:33;;;;;;;17.23;12.67;;;;;;;0.86;100.00;103358.59;2070142;28;20224;-62
2023/02/07 00:55:34;;;;;;;18.17;13.40;;;;;;;0.37;100.00;103290.16;2066117;28;20191;-62
2023/02/07 00:56:34;;;;;;;17.57;13.60;;;;;;;0.96;100.00;103352.94;2072917;28;20234;-62
2023/02/07 00:57:35;;;;;;;15.27;12.20;;;;;;;0.44;100.00;103267.94;2073486;28;20190;-62
2023/02/07 00:58:36;;;;;;;19.67;13.60;;;;;;;1.02;100.00;103350.91;2072664;28;20557;-62
2023/02/07 00:59:36;;;;;;;17.00;12.83;;;;;;;1.04;100.00;103354.19;2072949;28;20209;-62
2023/02/07 01:00:36;;;;;;;16.20;12.93;;;;;;;0.87;100.00;103329.38;2072780;28;20200;-62
2023/02/07 01:01:37;;;;;;;17.10;13.10;;;;;;;0.94;100.00;103333.31;2072526;28;20205;-62
2023/02/07 01:02:37;;;;;;;18.73;13.37;;;;;;;1.10;100.00;103353.78;2072780;28;20264;-62
2023/02/07 01:03:38;;;;;;;20.20;14.13;;;;;;;1.18;100.00;103358.53;2072191;28;20193;-62
2023/02/07 01:04:38;;;;;;;18.67;13.43;;;;;;;1.25;100.00;103355.38;2072401;28;20205;-62
2023/02/07 01:05:39;;;;;;;18.13;13.43;;;;;;;0.90;100.00;103302.28;2073252;28;20663;-62
2023/02/07 01:06:39;;;;;;;18.00;13.37;;;;;;;1.33;100.00;103352.75;2073241;28;20186;-62
2023/02/07 01:07:40;;;;;;;20.70;13.40;;;;;;;1.18;100.00;103338.59;2072234;28;20251;-62
2023/02/07 01:08:41;;;;;;;24.13;13.23;;;;;;;1.28;100.00;103363.00;2072556;28;20679;-62
2023/02/07 01:09:41;;;;;;;20.93;13.63;;;;;;;1.19;100.00;103335.56;2072656;28;20197;-62
2023/02/07 01:10:43;;;;;;;22.60;13.20;;;;;;;1.37;100.00;103355.69;2072727;28;20207;-62
2023/02/07 01:11:44;;;;;;;19.73;13.35;;;;;;;1.43;100.00;103352.56;2072313;28;20278;-62
2023/02/07 01:12:44;;;;;;;21.80;13.40;;;;;;;1.51;100.00;103356.50;2072881;28;20177;-62
2023/02/07 01:13:45;;;;;;;17.90;12.80;;;;;;;1.05;100.00;103292.97;2073476;28;20182;-62
2023/02/07 01:14:45;;;;;;;18.60;13.20;;;;;;;1.17;100.00;103312.38;2072791;28;20228;-62
2023/02/07 01:15:48;;;;;;;16.63;13.00;;;;;;;1.53;100.00;103357.81;2072520;28;20224;-62
2023/02/07 01:16:49;;;;;;;17.70;13.32;;;;;;;1.06;100.00;103289.13;2066623;28;20212;-62
2023/02/07 01:17:49;;;;;;;18.10;12.93;;;;;;;1.33;100.00;103330.91;2069403;28;20648;-62
2023/02/07 01:18:50;;;;;;;17.50;12.93;;;;;;;1.52;100.00;103355.38;2072682;28;20240;-62
2023/02/07 01:19:56;;;;;;;16.37;12.57;;;;;;;1.52;100.00;103356.19;2070186;28;20205;-62
2023/02/07 01:20:56;;;;;;;16.15;12.68;;;;;;;1.55;100.00;103354.78;2066873;28;20174;-62
2023/02/07 01:21:58;;;;;;;18.33;12.50;;;;;;;1.58;100.00;103365.06;2070838;28;20655;-62
2023/02/07 01:22:58;;;;;;;17.33;13.15;;;;;;;1.54;100.00;103359.41;2064477;28;20194;-62
2023/02/07 01:23:59;;;;;;;17.50;12.90;;;;;;;1.55;100.00;103354.78;2065093;28;20626;-62
2023/02/07 01:24:59;;;;;;;17.13;12.80;;;;;;;1.47;100.00;103345.38;2064899;28;20361;-62
2023/02/07 01:26:04;;;;;;;15.73;12.53;;;;;;;0.50;100.00;103179.44;2070878;28;20194;-62
2023/02/07 01:27:04;;;;;;;17.85;13.13;;;;;;;1.55;100.00;103352.81;2072069;28;20201;-62
2023/02/07 01:28:05;;;;;;;16.27;12.43;;;;;;;1.49;100.00;103347.78;2071543;28;20721;-62
2023/02/07 01:29:06;;;;;;;17.03;13.17;;;;;;;1.40;100.00;103341.41;2072873;28;20200;-62
2023/02/07 01:30:07;;;;;;;18.63;12.88;;;;;;;1.46;100.00;103346.50;2072571;28;20182;-62
2023/02/07 01:31:09;;;;;;;16.43;12.60;;;;;;;1.53;100.00;103355.06;2072648;28;20185;-62
2023/02/07 01:32:10;;;;;;;15.50;12.25;;;;;;;1.53;100.00;103356.97;2071911;28;20261;-62
2023/02/07 01:33:10;;;;;;;17.13;12.60;;;;;;;1.51;100.00;103351.84;2064896;28;20773;-62
2023/02/07 01:34:12;;;;;;;15.67;12.30;;;;;;;0.95;100.00;103263.16;2064185;28;20194;-62
2023/02/07 01:35:13;;;;;;;19.08;12.90;;;;;;;1.41;100.00;103348.50;2070127;28;20200;-62
2023/02/07 01:36:15;;;;;;;18.50;13.43;;;;;;;1.23;100.00;103343.97;2064764;28;20663;-62
2023/02/07 01:37:16;;;;;;;18.70;13.98;;;;;;;1.15;100.00;103350.94;2068837;28;20199;-62
2023/02/07 01:38:16;;;;;;;22.13;14.03;;;;;;;1.09;100.00;103354.88;2072240;28;20678;-62
2023/02/07 01:39:16;;;;;;;17.57;13.80;;;;;;;0.53;100.00;103266.94;2071778;28;20205;-62
2023/02/07 01:40:17;;;;;;;19.57;14.37;;;;;;;0.11;100.00;103220.81;2072274;28;20177;-62
2023/02/07 01:41:18;;;;;;;17.27;13.60;;;;;;;0.82;100.00;103349.38;2072536;28;20268;-62
2023/02/07 01:42:21;;;;;;;18.05;13.15;;;;;;;0.22;100.00;103268.59;2072482;28;20189;-62
2023/02/07 01:43:23;;;;;;;17.33;13.55;;;;;;;0.75;100.00;103350.88;2065751;28;20249;-62
2023/02/07 01:44:23;;;;;;;19.13;14.10;;;;;;;0.57;100.00;103346.31;2070668;28;20567;-62
2023/02/07 01:45:29;;;;;;;20.03;14.07;;;;;;;0.32;100.00;103327.66;2072593;28;20201;-62
2023/02/07 01:46:31;;;;;;;18.27;14.00;;;;;;;0.41;100.00;103356.66;2071825;28;20209;-62
2023/02/07 01:47:34;;;;;;;19.38;14.25;;;;;;;0.03;100.00;103297.84;2071942;28;20212;-62
2023/02/07 01:48:36;;;;;;;20.13;13.63;;;;;;;0.44;100.00;103358.81;2066761;28;20297;-62
2023/02/07 01:49:36;;;;;;;18.88;14.02;;;;;;;0.35;100.00;103357.84;2072497;28;20230;-62
2023/02/07 01:50:39;;;;;;;23.17;15.63;;;;;;;0.34;100.00;103358.97;2071807;28;20200;-62
2023/02/07 01:51:44;;;;;;;20.70;14.27;;;;;;;0.37;100.00;103365.75;2064268;28;20277;-62
2023/02/07 01:52:45;;;;;;;25.13;15.27;;;;;;;0.38;100.00;103345.53;2065134;28;20213;-62
2023/02/07 01:53:46;;;;;;;24.60;15.80;;;;;;;0.43;100.00;103362.63;2064538;28;20697;-62
2023/02/07 01:54:50;;;;;;;21.70;15.15;;;;;;;-0.05;100.00;103278.63;2070945;28;20562;-62
2023/02/07 01:55:54;;;;;;;25.85;17.08;;;;;;;0.42;100.00;103365.66;2072385;28;20204;-62
2023/02/07 01:56:57;;;;;;;23.23;16.42;;;;;;;0.22;100.00;103334.06;2067247;28;20252;-62
2023/02/07 01:58:00;;;;;;;29.77;16.58;;;;;;;0.33;100.00;103362.81;2068594;28;20303;-62
2023/02/07 01:59:05;;;;;;;25.77;15.90;;;;;;;0.18;100.00;103343.13;2068869;28;20193;-62
2023/02/07 02:00:07;;;;;;;26.13;16.50;;;;;;;0.29;100.00;103358.22;2067688;28;20265;-62
2023/02/07 02:01:20;;;;;;;25.55;15.43;;;;;;;0.32;100.00;103357.66;2072082;28;20562;-62
2023/02/07 02:02:23;;;;;;;23.48;15.15;;;;;;;0.30;100.00;103354.38;2072719;28;20209;-62
2023/02/07 02:03:24;;;;;;;24.33;15.80;;;;;;;0.19;100.00;103351.03;2072396;28;20196;-62
2023/02/07 02:04:24;;;;;;;24.27;16.37;;;;;;;0.23;100.00;103354.78;2072294;28;20188;-62
2023/02/07 02:05:27;;;;;;;27.33;16.40;;;;;;;0.30;100.00;103359.84;2072784;28;20185;-62
2023/02/07 02:06:30;;;;;;;23.25;15.60;;;;;;;-0.32;100.00;103260.25;2064862;28;20187;-62
2023/02/07 02:07:32;;;;;;;22.27;14.63;;;;;;;0.41;100.00;103370.31;2071740;28;20202;-62
2023/02/07 02:08:33;;;;;;;23.42;15.93;;;;;;;-0.04;100.00;103272.84;2072171;28;20204;-62
2023/02/07 02:09:33;;;;;;;24.93;15.77;;;;;;;0.57;100.00;103358.03;2071978;28;20276;-62
2023/02/07 02:11:12;;;;;;;23.60;15.33;;;;;;;0.56;100.00;103363.78;2071334;28;20196;-62
2023/02/07 02:12:37;;;;;;;22.05;14.57;;;;;;;0.52;100.00;103366.28;2067041;28;20189;-62
2023/02/07 02:14:00;;;;;;;23.65;14.32;;;;;;;0.46;100.00;103351.13;2065166;28;20756;-62
2023/02/07 02:15:30;;;;;;;19.98;14.40;;;;;;;0.48;100.00;103362.53;2072125;28;20658;-62
2023/02/07 02:16:44;;;;;;;25.73;15.23;;;;;;;0.48;100.00;103364.47;2072584;28;20193;-62
2023/02/07 02:18:15;;;;;;;23.38;15.40;;;;;;;0.46;100.00;103358.47;2072319;28;20193;-62
2023/02/07 02:19:37;;;;;;;23.83;15.30;;;;;;;0.39;100.00;103355.34;2063563;28;20178;-62
2023/02/07 02:21:16;;;;;;;22.10;15.57;;;;;;;0.32;100.00;103352.97;2070357;28;20166;-62
2023/02/07 02:22:40;;;;;;;24.88;16.38;;;;;;;0.36;100.00;103361.41;2071293;28;20405;-62
2023/02/07 02:24:18;;;;;;;28.73;15.52;;;;;;;0.36;100.00;103359.47;2064708;28;20663;-62
2023/02/07 02:25:21;;;;;;;24.70;15.52;;;;;;;0.35;100.00;103365.22;2063812;28;20202;-62
2023/02/07 02:26:45;;;;;;;24.85;16.35;;;;;;;0.33;100.00;103360.09;2066336;28;20185;-62
2023/02/07 02:28:00;;;;;;;21.48;14.93;;;;;;;0.35;100.00;103359.75;2072061;28;20694;-62
2023/02/07 02:29:35;;;;;;;24.88;14.52;;;;;;;0.35;100.00;103355.13;2072199;28;20227;-62
2023/02/07 02:30:54;;;;;;;22.20;15.32;;;;;;;0.37;100.00;103361.09;2072831;28;20165;-62
2023/02/07 02:31:57;;;;;;;22.15;14.93;;;;;;;0.37;100.00;103357.56;2064003;28;20177;-62
2023/02/07 02:33:23;;;;;;;22.15;14.90;;;;;;;0.38;100.00;103359.19;2072727;28;20180;-62
2023/02/07 02:34:35;;;;;;;22.23;14.07;;;;;;;0.41;100.00;103355.88;2065766;28;20260;-62
2023/02/07 02:35:47;;;;;;;21.67;15.30;;;;;;;0.40;100.00;103354.22;2071951;28;20178;-62
2023/02/07 02:37:06;;;;;;;23.02;15.18;;;;;;;0.37;100.00;103358.34;2072355;28;20307;-62
2023/02/07 02:38:15;;;;;;;20.00;14.27;;;;;;;-0.12;100.00;103289.91;2071981;28;20264;-62
2023/02/07 02:39:55;;;;;;;20.10;13.35;;;;;;;0.34;100.00;103360.88;2071859;28;20570;-62
2023/02/07 02:41:05;;;;;;;19.40;13.43;;;;;;;0.29;100.00;103356.31;2064519;28;20252;-62
2023/02/07 02:42:17;;;;;;;20.20;13.40;;;;;;;0.19;100.00;103355.66;2064104;28;20169;-62
2023/02/07 02:43:33;;;;;;;21.77;12.55;;;;;;;0.13;100.00;103360.41;2064467;28;20169;-62
2023/02/07 02:44:41;;;;;;;18.70;12.85;;;;;;;0.01;100.00;103351.06;2064971;28;20181;-62
2023/02/07 02:45:46;;;;;;;17.15;12.50;;;;;;;-0.43;100.00;103292.56;2072032;28;20188;-62
2023/02/07 02:46:48;;;;;;;18.80;13.07;;;;;;;-0.10;100.00;103353.09;2072064;28;20250;-62
2023/02/07 02:47:50;;;;;;;20.75;14.00;;;;;;;-0.67;100.00;103251.75;2063695;28;20264;-62
2023/02/07 02:48:52;;;;;;;17.42;12.63;;;;;;;-0.07;100.00;103362.59;2070974;28;20219;-62
2023/02/07 02:49:53;;;;;;;17.50;12.70;;;;;;;-0.11;100.00;103350.66;2072216;28;20651;-62
2023/02/07 02:50:54;;;;;;;19.63;13.03;;;;;;;-0.08;100.00;103355.53;2072353;28;20324;-62
2023/02/07 02:51:55;;;;;;;18.43;12.77;;;;;;;-0.63;100.00;103277.31;2071608;28;20205;-62
2023/02/07 02:52:56;;;;;;;18.53;12.73;;;;;;;-0.72;100.00;103284.50;2072442;28;20203;-62
2023/02/07 02:53:59;;;;;;;17.00;12.67;;;;;;;-0.73;100.00;103279.38;2071911;28;20386;-62
2023/02/07 02:54:59;;;;;;;18.48;13.32;;;;;;;-0.30;100.00;103347.94;2072171;28;20610;-62
2023/02/07 02:56:21;;;;;;;19.27;13.07;;;;;;;-0.28;100.00;103351.19;2072455;28;20354;-62
2023/02/07 02:57:48;;;;;;;16.92;12.07;;;;;;;-0.26;100.00;103357.16;2071757;28;20184;-62
2023/02/07 02:59:12;;;;;;;16.40;12.25;;;;;;;-0.39;100.00;103357.06;2070667;28;20200;-62
2023/02/07 03:00:24;;;;;;;19.10;13.63;;;;;;;-0.68;100.00;103321.75;2072173;28;20576;-62
2023/02/07 03:01:41;;;;;;;17.00;12.80;;;;;;;-0.60;100.00;103340.16;2071241;28;20199;-62
2023/02/07 03:02:48;;;;;;;17.80;12.57;;;;;;;-0.48;100.00;103358.03;2071998;28;20211;-62
2023/02/07 03:04:00;;;;;;;23.60;13.98;;;;;;;-0.47;100.00;103351.47;2072246;28;20177;-62
2023/02/07 03:05:24;;;;;;;21.88;12.75;;;;;;;-0.47;100.00;103346.81;2072078;28;20204;-62
2023/02/07 03:06:31;;;;;;;18.35;12.77;;;;;;;-0.40;100.00;103367.16;2064597;28;20172;-62
2023/02/07 03:08:04;;;;;;;25.67;14.23;;;;;;;-0.36;100.00;103343.66;2071824;28;20227;-62
2023/02/07 03:09:22;;;;;;;20.50;13.25;;;;;;;-0.30;100.00;103360.78;2068480;28;20718;-62
2023/02/07 03:10:43;;;;;;;21.88;12.70;;;;;;;-0.57;100.00;103314.25;2063893;28;20189;-62
2023/02/07 03:12:02;;;;;;;19.05;13.23;;;;;;;-0.33;100.00;103355.91;2069160;28;20201;-62
2023/02/07 03:13:20;;;;;;;18.95;12.52;;;;;;;-1.19;100.00;103218.44;2069154;28;20597;-62
2023/02/07 03:14:36;;;;;;;19.40;13.38;;;;;;;-0.36;100.00;103354.56;2064513;28;20635;-62
2023/02/07 03:15:59;;;;;;;17.60;13.10;;;;;;;-0.43;100.00;103356.03;2063928;28;20624;-62
2023/02/07 03:17:08;;;;;;;17.88;12.55;;;;;;;-0.52;100.00;103353.16;2063718;28;20255;-62
2023/02/07 03:18:20;;;;;;;21.10;12.43;;;;;;;-0.61;100.00;103352.16;2063589;28;20694;-62
2023/02/07 03:19:24;;;;;;;19.83;12.75;;;;;;;-0.68;100.00;103359.06;2066767;28;20204;-62
2023/02/07 03:20:44;;;;;;;16.33;12.32;;;;;;;-1.58;100.00;103245.81;2069929;28;20188;-62
2023/02/07 03:21:49;;;;;;;19.58;12.90;;;;;;;-0.97;100.00;103340.06;2066791;28;20295;-62
2023/02/07 03:22:52;;;;;;;20.25;13.18;;;;;;;-1.12;100.00;103362.00;2072243;28;20564;-62
2023/02/07 03:23:55;;;;;;;16.10;12.32;;;;;;;-1.26;100.00;103338.50;2071076;28;20191;-62
2023/02/07 03:24:59;;;;;;;19.75;13.18;;;;;;;-1.27;100.00;103348.56;2071390;28;20222;-62
2023/02/07 03:26:01;;;;;;;17.90;12.50;;;;;;;-1.28;100.00;103350.75;2071782;28;20258;-62
2023/02/07 03:27:08;;;;;;;18.63;13.63;;;;;;;-1.33;100.00;103355.16;2072505;28;20221;-62
2023/02/07 03:28:11;;;;;;;18.83;12.18;;;;;;;-1.89;100.00;103271.66;2072176;28;20547;-62
2023/02/07 03:29:15;;;;;;;19.27;13.98;;;;;;;-1.64;100.00;103319.56;2063680;28;20183;-62
2023/02/07 03:30:19;;;;;;;20.40;13.32;;;;;;;-1.35;100.00;103363.91;2070940;28;20710;-62
2023/02/07 03:31:23;;;;;;;16.75;13.27;;;;;;;-1.42;100.00;103347.09;2071631;28;20292;-62
2023/02/07 03:32:32;;;;;;;17.77;13.07;;;;;;;-1.40;100.00;103353.06;2073347;28;20582;-62
2023/02/07 03:33:33;;;;;;;19.33;13.43;;;;;;;-1.92;100.00;103255.09;2073802;28;20199;-62
2023/02/07 03:34:54;;;;;;;19.17;13.23;;;;;;;-1.17;100.00;103353.09;2073533;28;20279;-62
2023/02/07 03:36:13;;;;;;;16.30;11.50;;;;;;;-1.13;100.00;103351.41;2073428;28;20203;-62
2023/02/07 03:37:28;;;;;;;19.98;13.40;;;;;;;-1.12;100.00;103351.13;2073739;28;20637;-62
2023/02/07 03:38:29;;;;;;;19.25;12.93;;;;;;;-1.08;100.00;103349.44;2065646;28;20205;-62
2023/02/07 03:39:29;;;;;;;19.97;14.00;;;;;;;-0.99;100.00;103355.06;2073208;28;20198;-62
2023/02/07 03:40:36;;;;;;;21.03;12.93;;;;;;;-1.01;100.00;103352.63;2073530;28;20198;-62
2023/02/07 03:41:45;;;;;;;19.85;12.93;;;;;;;-0.98;100.00;103355.91;2073137;28;20220;-62
2023/02/07 03:42:51;;;;;;;23.80;13.40;;;;;;;-0.98;100.00;103357.50;2073358;28;20202;-62
2023/02/07 03:43:54;;;;;;;17.08;12.50;;;;;;;-1.11;100.00;103357.38;2073938;28;20196;-62
2023/02/07 03:44:57;;;;;;;18.30;12.95;;;;;;;-1.87;100.00;103264.03;2073195;28;20196;-62
2023/02/07 03:45:58;;;;;;;19.38;13.30;;;;;;;-1.34;100.00;103357.34;2073333;28;20204;-62
2023/02/07 03:46:59;;;;;;;17.67;13.43;;;;;;;-1.48;100.00;103359.09;2070358;28;20200;-62
2023/02/07 03:47:59;;;;;;;20.53;13.97;;;;;;;-1.98;100.00;103346.72;2067149;28;20204;-62
2023/02/07 03:48:59;;;;;;;18.47;13.53;;;;;;;-2.44;100.00;103250.34;2073617;28;20191;-62
2023/02/07 03:50:00;;;;;;;18.23;13.50;;;;;;;-1.80;100.00;103359.63;2074069;28;20174;-62
2023/02/07 03:51:01;;;;;;;18.63;12.90;;;;;;;-2.00;100.00;103337.25;2065700;28;20668;-62
2023/02/07 03:52:02;;;;;;;20.88;14.40;;;;;;;-1.88;100.00;103347.44;2071710;28;20205;-62
2023/02/07 03:53:05;;;;;;;20.90;14.07;;;;;;;-2.57;100.00;103248.25;2072918;28;20192;-62
2023/02/07 03:54:05;;;;;;;21.05;14.65;;;;;;;-2.03;100.00;103362.25;2073424;28;20207;-62
2023/02/07 03:55:06;;;;;;;19.23;14.37;;;;;;;-2.71;100.00;103276.28;2073237;28;20208;-62
2023/02/07 03:56:07;;;;;;;21.15;14.55;;;;;;;-2.14;100.00;103374.28;2073343;28;20206;-62
2023/02/07 03:57:08;;;;;;;20.60;14.50;;;;;;;-2.05;100.00;103372.59;2073082;28;20324;-62
2023/02/07 03:58:09;;;;;;;18.70;13.30;;;;;;;-2.16;100.00;103368.31;2073195;28;20203;-62
2023/02/07 03:59:09;;;;;;;19.50;13.87;;;;;;;-2.16;100.00;103379.97;2072771;28;20194;-62
2023/02/07 04:00:10;;;;;;;20.00;13.00;;;;;;;-2.01;100.00;103374.47;2072464;28;20186;-62
2023/02/07 04:01:11;;;;;;;19.10;13.50;;;;;;;-2.03;100.00;103382.09;2073121;28;20211;-62
2023/02/07 04:02:12;;;;;;;18.77;13.13;;;;;;;-2.40;100.00;103322.00;2073534;28;20183;-62
2023/02/07 04:03:12;;;;;;;19.27;13.70;;;;;;;-2.08;100.00;103369.34;2065626;28;20182;-62
2023/02/07 04:04:12;;;;;;;18.23;13.50;;;;;;;-2.78;100.00;103264.94;2071936;28;20280;-62
2023/02/07 04:05:13;;;;;;;19.27;13.17;;;;;;;-2.24;100.00;103375.16;2067623;28;20288;-62
2023/02/07 04:06:13;;;;;;;19.00;13.57;;;;;;;-2.37;100.00;103372.25;2069396;28;20197;-62
2023/02/07 04:07:14;;;;;;;19.30;14.20;;;;;;;-2.44;100.00;103363.56;2072210;28;20222;-62
2023/02/07 04:08:14;;;;;;;21.07;14.50;;;;;;;-2.62;100.00;103346.00;2067198;28;20656;-62
2023/02/07 04:09:15;;;;;;;23.20;14.40;;;;;;;-2.47;100.00;103359.50;2073311;28;20261;-62
2023/02/07 04:10:16;;;;;;;19.57;13.63;;;;;;;-2.31;100.00;103362.97;2073531;28;20184;-62
2023/02/07 04:11:16;;;;;;;23.77;15.30;;;;;;;-2.27;100.00;103372.19;2065245;28;20254;-62
2023/02/07 04:12:16;;;;;;;21.83;15.27;;;;;;;-2.49;100.00;103347.31;2072431;28;20314;-62
2023/02/07 04:13:17;;;;;;;21.50;14.70;;;;;;;-2.39;100.00;103371.69;2073379;28;20217;-62
2023/02/07 04:14:21;;;;;;;22.07;15.33;;;;;;;-2.43;100.00;103370.63;2068608;28;20596;-62
2023/02/07 04:15:21;;;;;;;22.02;14.73;;;;;;;-2.45;100.00;103375.53;2068974;28;20203;-62
2023/02/07 04:16:22;;;;;;;23.00;15.20;;;;;;;-2.44;100.00;103374.44;2073310;28;20203;-62
2023/02/07 04:17:22;;;;;;;27.23;16.00;;;;;;;-2.99;100.00;103287.84;2073259;28;20233;-62
2023/02/07 04:18:23;;;;;;;22.53;15.63;;;;;;;-2.40;100.00;103375.50;2072978;28;20183;-62
2023/02/07 04:19:23;;;;;;;22.87;15.27;;;;;;;-3.22;100.00;103283.84;2073747;28;20566;-62
2023/02/07 04:20:24;;;;;;;23.77;15.70;;;;;;;-2.57;100.00;103386.69;2073228;28;20190;-62
2023/02/07 04:21:24;;;;;;;23.80;15.83;;;;;;;-2.90;100.00;103352.09;2072531;28;20280;-62
2023/02/07 04:22:25;;;;;;;23.43;16.33;;;;;;;-2.77;100.00;103385.97;2073102;28;20666;-62
2023/02/07 04:23:25;;;;;;;23.63;16.13;;;;;;;-2.81;100.00;103379.47;2073397;28;20210;-62
2023/02/07 04:24:25;;;;;;;24.90;15.93;;;;;;;-2.86;100.00;103388.44;2073302;28;20198;-62
2023/02/07 04:25:26;;;;;;;25.03;16.37;;;;;;;-2.92;100.00;103386.03;2073185;28;20685;-62
2023/02/07 04:26:26;;;;;;;25.37;16.33;;;;;;;-3.27;100.00;103334.56;2073359;28;20187;-62
2023/02/07 04:27:28;;;;;;;24.13;16.23;;;;;;;-2.96;100.00;103393.91;2073479;28;20715;-62
2023/02/07 04:28:29;;;;;;;23.02;16.10;;;;;;;-2.81;100.00;103391.16;2065186;28;20202;-62
2023/02/07 04:29:29;;;;;;;20.07;15.40;;;;;;;-2.66;100.00;103393.81;2071542;28;20210;-62
2023/02/07 04:30:30;;;;;;;25.53;16.43;;;;;;;-2.56;100.00;103392.97;2073257;28;20200;-62
2023/02/07 04:31:31;;;;;;;24.30;15.70;;;;;;;-2.49;100.00;103398.91;2072925;28;20200;-62
2023/02/07 04:32:31;;;;;;;25.07;16.37;;;;;;;-2.39;100.00;103396.13;2070504;28;20244;-62
2023/02/07 04:33:32;;;;;;;22.90;15.27;;;;;;;-2.29;100.00;103394.19;2072579;28;20195;-62
2023/02/07 04:34:32;;;;;;;22.77;14.40;;;;;;;-2.22;100.00;103388.47;2072527;28;20190;-62
2023/02/07 04:35:33;;;;;;;20.67;13.47;;;;;;;-2.14;100.00;103404.16;2064532;28;20191;-64
2023/02/07 04:36:33;;;;;;;22.73;13.73;;;;;;;-2.12;100.00;103397.34;2072993;28;20175;-62
2023/02/07 04:37:34;;;;;;;22.60;14.60;;;;;;;-2.13;100.00;103406.59;2073086;28;20196;-63
2023/02/07 04:38:34;;;;;;;25.80;15.30;;;;;;;-2.10;100.00;103397.09;2066901;28;20194;-62
2023/02/07 04:39:35;;;;;;;21.93;15.00;;;;;;;-2.01;100.00;103392.69;2069952;28;20182;-62
2023/02/07 04:40:37;;;;;;;20.43;14.53;;;;;;;-2.03;100.00;103410.06;2069120;28;20656;-62
2023/02/07 04:41:38;;;;;;;22.80;14.43;;;;;;;-2.01;100.00;103403.56;2066831;28;20225;-62
2023/02/07 04:42:38;;;;;;;22.47;14.67;;;;;;;-1.98;100.00;103404.59;2072577;28;20194;-62
2023/02/07 04:43:39;;;;;;;24.80;15.20;;;;;;;-1.94;100.00;103404.06;2073172;28;20622;-62
2023/02/07 04:44:39;;;;;;;21.20;15.13;;;;;;;-2.83;100.00;103252.19;2073778;28;20216;-62
2023/02/07 04:45:39;;;;;;;23.97;14.83;;;;;;;-1.85;100.00;103411.31;2072706;28;20707;-62
2023/02/07 04:46:40;;;;;;;22.60;14.53;;;;;;;-1.81;100.00;103412.38;2073339;28;20190;-62
2023/02/07 04:47:40;;;;;;;24.00;14.67;;;;;;;-1.83;100.00;103408.31;2067653;28;20223;-62
2023/02/07 04:48:41;;;;;;;22.83;14.63;;;;;;;-1.84;100.00;103410.25;2068757;28;20305;-62
2023/02/07 04:49:41;;;;;;;24.67;14.70;;;;;;;-1.84;100.00;103406.69;2073011;28;20199;-62
2023/02/07 04:50:42;;;;;;;21.50;14.73;;;;;;;-1.84;100.00;103415.69;2072803;28;20562;-62
2023/02/07 04:51:42;;;;;;;24.97;15.40;;;;;;;-2.08;100.00;103404.66;2071617;28;20193;-62
2023/02/07 04:52:43;;;;;;;21.47;14.13;;;;;;;-2.88;100.00;103268.50;2065710;28;20254;-62